Kapelle-op-den-Bos, Belgium
Current Conditions -  °F | °C
As of 9:20 PM on Friday 28 Nov 2014 (Local Time) from EBBR Reporting Station
Clear Clear  
Wind Chill: 36°   Ceiling: Unl
Heat Index: 41°   Visibility: 6mi
Dew Point: 37°   Wind: 8mph
Humidity: 87%   Direction: 90°E
Pressure: 29.8"   Gusts: NA
Location:  51.01°N, 4.36°E
Report Text: EBBR 282020Z 09007KT CAVOK 05/03 Q1009 NOSIG
Loading
Personal Weather Stations






























Interactive Weather Map New forecast layout! Learn more

10-Day Weather Forecast

Advertisements
Track Severe Weather on mobile